Time;durP1;ratioP1;P1;durP2;ratioP2;P2;SDS_P1;SDS_P2;PMS_P1;PMS_P2;Temp;Humidity;BMP_temperature;BMP_pressure;BME280_temperature;BME280_humidity;BME280_pressure;Samples;Min_cycle;Max_cycle;Signal;HPM_P1;HPM_P2
2021/05/08 00:01:45;;;;;;;20.23;12.45;;;;;;;8.50;60.49;101892.00;5025291;28;20033;-85
2021/05/08 00:04:12;;;;;;;15.48;12.90;;;;;;;8.43;60.61;101878.75;5031652;28;20026;-86
2021/05/08 00:06:39;;;;;;;18.55;13.38;;;;;;;8.39;59.96;101876.97;5029051;28;20025;-88
2021/05/08 00:09:07;;;;;;;17.75;13.38;;;;;;;8.34;60.62;101873.41;5031029;28;20064;-89
2021/05/08 00:11:34;;;;;;;16.02;11.80;;;;;;;8.29;60.57;101872.50;5033768;28;20033;-88
2021/05/08 00:14:01;;;;;;;17.55;11.48;;;;;;;8.24;60.46;101868.97;5028595;28;20037;-87
2021/05/08 00:16:38;;;;;;;14.10;11.00;;;;;;;8.18;60.54;101859.25;5023071;28;20393;-87
2021/05/08 00:19:05;;;;;;;15.13;11.82;;;;;;;8.15;60.76;101863.63;5021055;28;20034;-88
2021/05/08 00:21:32;;;;;;;15.40;10.88;;;;;;;8.09;60.63;101860.06;5028121;28;20096;-87
2021/05/08 00:23:58;;;;;;;15.45;11.90;;;;;;;8.05;60.81;101852.09;5028577;28;20033;-85
2021/05/08 00:26:25;;;;;;;11.85;9.93;;;;;;;8.01;60.63;101853.88;5025060;28;20057;-86
2021/05/08 00:28:52;;;;;;;14.77;10.50;;;;;;;7.98;60.74;101861.75;5022143;28;20601;-87
2021/05/08 00:31:19;;;;;;;15.90;12.02;;;;;;;7.98;61.08;101867.03;5023949;28;20025;-89
2021/05/08 00:33:45;;;;;;;14.63;12.40;;;;;;;7.98;61.06;101855.59;5025847;28;20083;-85
2021/05/08 00:36:12;;;;;;;17.25;13.45;;;;;;;7.97;60.71;101861.75;5030372;28;20111;-85
2021/05/08 00:38:39;;;;;;;19.67;14.13;;;;;;;7.97;60.82;101849.41;5026157;28;20029;-87
2021/05/08 00:41:05;;;;;;;19.55;13.52;;;;;;;7.98;60.54;101845.91;5020861;28;20547;-87
2021/05/08 00:43:32;;;;;;;19.52;13.15;;;;;;;7.96;60.51;101844.13;5025613;28;20033;-87
2021/05/08 00:45:59;;;;;;;18.08;13.68;;;;;;;7.96;60.58;101845.00;5026732;28;20052;-86
2021/05/08 00:48:28;;;;;;;18.92;14.38;;;;;;;7.99;60.94;101846.78;5029195;28;20503;-88
2021/05/08 00:50:55;;;;;;;22.88;14.55;;;;;;;7.95;60.81;101840.63;5032056;28;20057;-89
2021/05/08 00:53:23;;;;;;;25.38;17.08;;;;;;;7.94;61.17;101844.13;5031092;28;20024;-88
2021/05/08 00:55:50;;;;;;;25.98;15.43;;;;;;;7.93;61.21;101837.09;5032277;28;20044;-87
2021/05/08 00:58:17;;;;;;;18.88;14.73;;;;;;;7.92;61.13;101830.03;5019910;28;20025;-87
2021/05/08 01:00:44;;;;;;;20.35;14.93;;;;;;;7.93;61.50;101832.69;5029460;28;20104;-87
2021/05/08 01:03:12;;;;;;;22.42;15.82;;;;;;;7.91;61.48;101830.91;5033423;28;20034;-88
2021/05/08 01:05:39;;;;;;;25.83;16.08;;;;;;;7.92;61.24;101837.94;5033230;28;20029;-88
2021/05/08 01:08:06;;;;;;;20.75;15.05;;;;;;;7.91;61.22;101833.53;5034994;28;20030;-88
2021/05/08 01:10:33;;;;;;;22.40;15.27;;;;;;;7.91;61.02;101836.19;5046586;28;20022;-87
2021/05/08 01:13:02;;;;;;;20.38;14.38;;;;;;;7.91;61.17;101833.53;5035256;28;20030;-88
2021/05/08 01:15:29;;;;;;;20.73;14.90;;;;;;;7.87;61.34;101826.50;5033976;28;20026;-88
2021/05/08 01:17:56;;;;;;;22.45;15.57;;;;;;;7.86;61.64;101819.44;5020708;28;20041;-88
2021/05/08 01:20:23;;;;;;;22.05;15.85;;;;;;;7.88;61.34;101825.63;5026760;28;20021;-89
2021/05/08 01:22:50;;;;;;;21.35;16.08;;;;;;;7.86;61.36;101819.44;5023419;28;20037;-87
2021/05/08 01:25:20;;;;;;;23.90;15.38;;;;;;;7.87;61.34;101824.72;5030582;28;20435;-89
2021/05/08 01:27:50;;;;;;;17.70;13.32;;;;;;;7.87;61.34;101816.81;5026980;28;20033;-88
2021/05/08 01:30:20;;;;;;;20.83;15.05;;;;;;;7.91;61.43;101812.44;5022483;28;20041;-87
2021/05/08 01:32:48;;;;;;;21.27;15.18;;;;;;;7.91;61.66;101817.72;5026968;28;20116;-89
2021/05/08 01:35:15;;;;;;;22.27;15.55;;;;;;;7.91;61.22;101808.06;5023149;28;20331;-87
2021/05/08 01:37:42;;;;;;;19.42;13.90;;;;;;;7.89;61.14;101814.19;5021653;28;20025;-88
2021/05/08 01:40:12;;;;;;;20.50;13.88;;;;;;;7.89;61.12;101803.66;5015091;28;20029;-88
2021/05/08 01:42:40;;;;;;;18.02;12.90;;;;;;;7.86;61.09;101798.34;5017754;28;20104;-88
2021/05/08 01:47:52;;;;;;;21.73;15.10;;;;;;;7.77;61.49;101799.16;5054575;28;20916;-87
2021/05/08 01:50:21;;;;;;;24.60;15.52;;;;;;;7.77;61.94;101789.47;5046874;28;20061;-86
2021/05/08 01:52:48;;;;;;;21.67;14.93;;;;;;;7.73;61.63;101792.97;5033224;28;20022;-87
2021/05/08 01:55:17;;;;;;;19.40;14.73;;;;;;;7.73;61.73;101785.06;5015674;28;20033;-87
2021/05/08 01:57:47;;;;;;;24.42;16.50;;;;;;;7.73;61.55;101781.53;5015387;28;20037;-88
2021/05/08 02:00:18;;;;;;;25.58;15.90;;;;;;;7.74;62.16;101778.91;5017367;28;20094;-88
2021/05/08 02:02:46;;;;;;;22.10;15.10;;;;;;;7.73;61.95;101769.22;5009388;28;20046;-86
2021/05/08 02:05:13;;;;;;;24.08;15.95;;;;;;;7.69;61.66;101770.09;5012990;28;20061;-89
2021/05/08 02:07:40;;;;;;;22.85;16.10;;;;;;;7.68;61.75;101768.31;5019730;28;20057;-88
2021/05/08 02:10:08;;;;;;;26.13;15.57;;;;;;;7.67;62.22;101771.81;5015462;28;20022;-87
2021/05/08 02:12:38;;;;;;;22.92;15.50;;;;;;;7.69;62.08;101767.44;5019614;28;20485;-87
2021/05/08 02:15:09;;;;;;;24.92;17.15;;;;;;;7.72;62.12;101771.88;5019161;28;20030;-87
2021/05/08 02:17:36;;;;;;;24.60;16.17;;;;;;;7.67;62.38;101761.28;5015453;28;20076;-87
2021/05/08 02:22:51;;;;;;;23.17;16.90;;;;;;;7.69;62.20;101759.53;5117734;27;20116;-87
2021/05/08 02:25:18;;;;;;;24.80;17.33;;;;;;;7.69;62.41;101763.91;5108672;28;20111;-86
2021/05/08 02:27:45;;;;;;;22.65;15.93;;;;;;;7.68;62.42;101756.91;5108598;28;20044;-86
2021/05/08 02:30:14;;;;;;;22.35;15.90;;;;;;;7.69;62.36;101759.53;5100598;28;20479;-86
2021/05/08 02:32:41;;;;;;;29.15;15.43;;;;;;;7.67;62.22;101756.00;5094991;28;20040;-86
2021/05/08 02:35:10;;;;;;;25.50;16.77;;;;;;;7.70;62.24;101747.22;5105396;28;20367;-86
2021/05/08 02:37:37;;;;;;;25.48;17.05;;;;;;;7.65;62.39;101749.84;5108626;28;20497;-86
2021/05/08 02:40:13;;;;;;;25.73;16.42;;;;;;;7.72;62.17;101745.47;5108855;28;20024;-86
2021/05/08 02:42:40;;;;;;;24.38;16.15;;;;;;;7.67;62.21;101742.81;5102987;28;20036;-86
2021/05/08 02:45:09;;;;;;;26.23;16.33;;;;;;;7.68;62.42;101738.44;5108606;28;20071;-87
2021/05/08 02:47:42;;;;;;;24.95;16.00;;;;;;;7.71;62.41;101736.69;5108627;28;20111;-87
2021/05/08 02:50:10;;;;;;;24.27;16.35;;;;;;;7.66;62.23;101735.75;5097270;28;20022;-87
2021/05/08 02:52:38;;;;;;;21.40;15.07;;;;;;;7.65;61.76;101730.47;5098395;28;20535;-87
2021/05/08 02:55:05;;;;;;;23.13;15.38;;;;;;;7.60;62.34;101728.72;5105888;28;20054;-87
2021/05/08 02:57:32;;;;;;;19.80;14.18;;;;;;;7.62;62.32;101731.34;5107687;28;20016;-87
2021/05/08 02:59:58;;;;;;;21.95;16.42;;;;;;;7.61;62.19;101725.22;5095830;28;20390;-86
2021/05/08 03:02:25;;;;;;;23.95;15.50;;;;;;;7.62;61.95;101731.34;5106237;28;20039;-85
2021/05/08 03:04:51;;;;;;;21.52;15.70;;;;;;;7.62;62.11;101726.06;5105747;28;20020;-88
2021/05/08 03:07:20;;;;;;;23.65;15.45;;;;;;;7.64;62.23;101724.34;5104102;28;20082;-88
2021/05/08 03:09:47;;;;;;;25.92;16.40;;;;;;;7.68;61.89;101719.97;5104577;28;20040;-88
2021/05/08 03:12:13;;;;;;;22.33;15.82;;;;;;;7.70;62.43;101727.00;5090861;28;20031;-87
2021/05/08 03:14:40;;;;;;;30.67;17.45;;;;;;;7.76;62.27;101729.69;5095363;28;20031;-89
2021/05/08 03:17:07;;;;;;;27.73;16.55;;;;;;;7.87;61.85;101720.94;5100019;28;20052;-86
2021/05/08 03:19:33;;;;;;;22.23;15.48;;;;;;;7.91;61.87;101715.69;5101506;28;20523;-87
2021/05/08 03:22:00;;;;;;;21.52;15.27;;;;;;;7.95;61.99;101708.69;5102086;28;20085;-86
2021/05/08 03:24:26;;;;;;;20.73;14.60;;;;;;;7.94;62.00;101706.91;5103624;28;20035;-87
2021/05/08 03:26:53;;;;;;;22.48;15.35;;;;;;;7.93;61.76;101703.38;5107352;28;20035;-86
2021/05/08 03:29:19;;;;;;;21.88;14.55;;;;;;;7.90;61.44;101692.81;5102280;28;20035;-85
2021/05/08 03:31:46;;;;;;;21.67;14.73;;;;;;;7.88;61.58;101691.06;5106189;28;20391;-87
2021/05/08 03:34:12;;;;;;;22.73;15.93;;;;;;;7.86;61.38;101683.13;5081985;28;20085;-86
2021/05/08 03:36:38;;;;;;;17.77;14.10;;;;;;;7.86;61.92;101682.22;5077386;28;20032;-87
2021/05/08 03:39:05;;;;;;;19.83;13.73;;;;;;;7.86;61.74;101682.22;5091502;28;20169;-87
2021/05/08 03:41:31;;;;;;;20.88;14.77;;;;;;;7.88;61.65;101680.50;5088395;28;20437;-87
2021/05/08 03:43:58;;;;;;;22.77;15.05;;;;;;;7.91;61.87;101685.78;5088167;28;20017;-85
2021/05/08 03:46:24;;;;;;;22.55;15.35;;;;;;;7.92;61.78;101683.16;5093849;28;20050;-85
2021/05/08 03:48:50;;;;;;;20.33;13.57;;;;;;;7.93;61.87;101678.75;5093357;28;20051;-87
2021/05/08 03:51:17;;;;;;;21.42;13.05;;;;;;;7.97;61.46;101680.53;5084241;28;20039;-86
2021/05/08 03:53:43;;;;;;;17.00;13.23;;;;;;;7.98;61.33;101674.38;5091911;28;20028;-86
2021/05/08 03:56:10;;;;;;;20.25;13.57;;;;;;;8.02;61.73;101678.78;5089535;28;20439;-87
2021/05/08 03:58:36;;;;;;;18.77;13.13;;;;;;;8.05;61.54;101667.34;5092163;28;20028;-87
2021/05/08 04:01:02;;;;;;;20.73;13.50;;;;;;;8.08;60.88;101672.66;5091258;28;20380;-86
2021/05/08 04:03:29;;;;;;;21.02;13.20;;;;;;;8.10;60.96;101677.06;5092779;28;20391;-87
2021/05/08 04:05:55;;;;;;;16.27;11.35;;;;;;;8.12;60.84;101676.19;5092145;28;20772;-87
2021/05/08 04:08:21;;;;;;;16.05;11.70;;;;;;;8.13;60.80;101675.31;5090650;28;20020;-88
2021/05/08 04:10:49;;;;;;;17.35;11.75;;;;;;;8.16;60.65;101676.22;5085403;28;20032;-87
2021/05/08 04:13:17;;;;;;;18.60;11.50;;;;;;;8.17;61.02;101666.53;5086151;28;20106;-88
2021/05/08 04:15:44;;;;;;;15.70;10.75;;;;;;;8.17;60.76;101666.53;5088282;28;20032;-88
2021/05/08 04:18:11;;;;;;;20.92;11.73;;;;;;;8.23;60.58;101666.53;5086963;28;20382;-87
2021/05/08 04:20:38;;;;;;;16.90;11.27;;;;;;;8.27;60.64;101657.75;5080668;28;20115;-87
2021/05/08 04:23:05;;;;;;;14.40;10.35;;;;;;;8.34;60.29;101651.63;5088586;28;20070;-87
2021/05/08 04:25:32;;;;;;;18.02;11.05;;;;;;;8.37;60.22;101645.44;5089867;28;20024;-88
2021/05/08 04:27:58;;;;;;;15.40;10.13;;;;;;;8.37;60.30;101648.09;5092368;28;20063;-86
2021/05/08 04:30:24;;;;;;;14.52;9.88;;;;;;;8.42;60.03;101647.25;5082955;28;20078;-87
2021/05/08 04:32:50;;;;;;;14.55;9.55;;;;;;;8.47;60.70;101638.47;5092752;28;20089;-86
2021/05/08 04:35:17;;;;;;;14.70;9.35;;;;;;;8.50;59.92;101639.34;5089789;28;20509;-86
2021/05/08 04:37:44;;;;;;;13.93;8.95;;;;;;;8.55;59.85;101644.66;5091595;28;20024;-86
2021/05/08 04:40:11;;;;;;;13.70;9.68;;;;;;;8.61;59.68;101644.66;5086878;28;20055;-87
2021/05/08 04:42:37;;;;;;;12.38;9.23;;;;;;;8.69;60.15;101637.59;5084065;28;20036;-87
2021/05/08 04:45:05;;;;;;;14.63;8.73;;;;;;;8.74;59.78;101627.91;5080539;28;20483;-85
2021/05/08 04:47:31;;;;;;;16.80;8.18;;;;;;;8.78;59.80;101638.50;5091543;28;20062;-86
2021/05/08 04:49:59;;;;;;;12.07;7.85;;;;;;;8.82;59.29;101629.69;5092544;28;20028;-86
2021/05/08 04:52:26;;;;;;;12.93;8.27;;;;;;;8.86;59.21;101628.78;5072577;28;20028;-87
2021/05/08 04:54:52;;;;;;;12.63;8.05;;;;;;;8.89;59.71;101620.88;5089542;28;20029;-86
2021/05/08 04:57:19;;;;;;;11.15;7.75;;;;;;;8.94;59.43;101616.47;5092010;28;20031;-86
2021/05/08 04:59:46;;;;;;;11.60;8.15;;;;;;;8.96;59.55;101616.47;5092472;28;20043;-85
2021/05/08 05:02:12;;;;;;;12.00;7.85;;;;;;;9.03;59.34;101619.13;5084216;28;20032;-86
2021/05/08 05:04:38;;;;;;;10.57;7.03;;;;;;;9.13;59.23;101616.44;5088005;28;20122;-86
2021/05/08 05:07:04;;;;;;;13.20;8.38;;;;;;;9.18;58.64;101612.94;5082446;28;20024;-86
2021/05/08 05:09:32;;;;;;;11.00;6.95;;;;;;;9.26;58.93;101609.34;5083692;28;20025;-86
2021/05/08 05:11:59;;;;;;;9.63;7.28;;;;;;;9.35;58.40;101610.22;5089821;28;20020;-88
2021/05/08 05:14:26;;;;;;;11.68;7.05;;;;;;;9.44;58.42;101614.59;5089133;28;20813;-87
2021/05/08 05:16:52;;;;;;;12.95;7.43;;;;;;;9.51;58.26;101607.56;5091797;28;20032;-87
2021/05/08 05:19:18;;;;;;;10.85;6.95;;;;;;;9.62;57.71;101605.75;5087366;28;20043;-87
2021/05/08 05:21:45;;;;;;;12.13;7.18;;;;;;;9.69;58.24;101604.84;5081675;28;20037;-87
2021/05/08 05:24:11;;;;;;;12.98;8.75;;;;;;;9.80;58.02;101606.56;5084804;28;20031;-86
2021/05/08 05:26:38;;;;;;;15.05;7.78;;;;;;;9.90;57.66;101608.25;5078504;28;20124;-87
2021/05/08 05:29:09;;;;;;;11.20;7.85;;;;;;;9.98;57.55;101611.75;5091456;28;20044;-85
2021/05/08 05:31:37;;;;;;;14.10;7.90;;;;;;;10.06;58.02;101608.19;5086806;28;20499;-89
2021/05/08 05:34:04;;;;;;;14.43;7.47;;;;;;;10.12;57.87;101608.13;5091604;28;20494;-88
2021/05/08 05:36:31;;;;;;;10.82;7.43;;;;;;;10.14;57.21;101607.25;5087509;28;20038;-88
2021/05/08 05:38:59;;;;;;;12.50;7.57;;;;;;;10.25;56.90;101604.53;5090417;28;20107;-89
2021/05/08 05:41:25;;;;;;;12.32;7.28;;;;;;;10.27;57.24;101612.44;5088568;28;20214;-86
2021/05/08 05:43:52;;;;;;;12.38;7.75;;;;;;;10.44;56.70;101612.38;5083962;28;20028;-89
2021/05/08 05:46:18;;;;;;;13.27;7.78;;;;;;;10.48;56.56;101608.81;5091741;28;20055;-89
2021/05/08 05:48:45;;;;;;;13.38;7.95;;;;;;;10.55;56.56;101597.28;5065996;28;20032;-90
2021/05/08 05:51:11;;;;;;;10.75;7.78;;;;;;;10.65;56.05;101593.69;5089041;28;20025;-79
2021/05/08 05:53:37;;;;;;;14.95;8.23;;;;;;;10.70;56.01;101595.41;5090309;28;20063;-88
2021/05/08 05:56:04;;;;;;;9.85;8.18;;;;;;;10.77;55.93;101597.13;5082104;28;20029;-88
2021/05/08 05:58:30;;;;;;;12.30;7.85;;;;;;;10.82;55.60;101590.88;5090935;28;20032;-91
2021/05/08 06:00:56;;;;;;;12.93;8.00;;;;;;;10.86;55.64;101586.44;5088186;28;20144;-88
2021/05/08 06:03:23;;;;;;;13.48;8.60;;;;;;;10.91;55.25;101589.03;5090692;28;20040;-88
2021/05/08 06:05:49;;;;;;;13.25;8.13;;;;;;;10.92;55.60;101590.81;5085992;28;20052;-88
2021/05/08 06:08:15;;;;;;;12.55;8.05;;;;;;;11.02;55.30;101578.34;5088071;28;20031;-88
2021/05/08 06:10:41;;;;;;;12.32;7.80;;;;;;;11.07;55.21;101584.47;5083407;28;20024;-89
2021/05/08 06:13:07;;;;;;;12.27;8.05;;;;;;;11.15;55.18;101583.50;5091417;28;20382;-88
2021/05/08 06:15:33;;;;;;;11.90;8.02;;;;;;;11.24;54.80;101571.91;5102001;28;20054;-87
2021/05/08 06:18:00;;;;;;;10.85;7.47;;;;;;;11.30;54.97;101571.84;5100724;28;20035;-89
2021/05/08 06:20:26;;;;;;;12.00;7.72;;;;;;;11.27;55.22;101569.22;5093143;28;20043;-87
2021/05/08 06:22:52;;;;;;;11.50;7.45;;;;;;;11.32;54.88;101564.72;5091637;28;20031;-86
2021/05/08 06:25:20;;;;;;;13.15;8.75;;;;;;;11.37;54.85;101571.78;5087607;28;20096;-87
2021/05/08 06:27:46;;;;;;;12.50;7.43;;;;;;;11.38;54.77;101557.63;5080523;28;20028;-84
2021/05/08 06:30:13;;;;;;;10.88;7.78;;;;;;;11.47;54.64;101562.78;5090341;28;20027;-87
2021/05/08 06:32:39;;;;;;;13.25;8.07;;;;;;;11.54;54.65;101559.19;5079468;28;20042;-90
2021/05/08 06:35:06;;;;;;;15.57;8.38;;;;;;;11.57;55.14;101559.13;5087568;28;20032;-87
2021/05/08 06:37:33;;;;;;;11.63;7.30;;;;;;;11.56;55.12;101554.72;5084688;28;20042;-89
2021/05/08 06:39:59;;;;;;;16.83;8.75;;;;;;;11.63;54.84;101548.44;5077610;28;20036;-90
2021/05/08 06:42:25;;;;;;;12.85;7.50;;;;;;;11.65;54.29;101545.75;5090662;28;20039;-90
2021/05/08 06:44:52;;;;;;;13.80;7.70;;;;;;;11.71;54.00;101544.78;5084707;28;20025;-89
2021/05/08 06:47:18;;;;;;;10.13;7.05;;;;;;;11.77;53.89;101545.56;5082849;28;20063;-89
2021/05/08 06:49:45;;;;;;;11.13;7.40;;;;;;;11.88;53.83;101537.47;5088417;28;20453;-86
2021/05/08 06:52:11;;;;;;;15.93;8.77;;;;;;;11.93;53.66;101535.63;5089290;28;20027;-86
2021/05/08 06:54:38;;;;;;;12.25;8.00;;;;;;;11.93;53.64;101532.97;5088231;28;20033;-86
2021/05/08 06:57:05;;;;;;;12.57;8.25;;;;;;;12.02;52.95;101523.16;5084067;28;20494;-86
2021/05/08 06:59:32;;;;;;;11.00;7.25;;;;;;;12.10;52.84;101532.75;5090583;28;20024;-86
2021/05/08 07:01:58;;;;;;;11.63;7.85;;;;;;;12.08;53.02;101533.69;5090547;28;20028;-86
2021/05/08 07:04:24;;;;;;;10.30;7.35;;;;;;;12.22;52.99;101529.03;5090559;28;20024;-86
2021/05/08 07:06:51;;;;;;;13.45;7.35;;;;;;;12.26;52.58;101528.09;5090732;28;20035;-85
2021/05/08 07:09:17;;;;;;;11.57;8.13;;;;;;;12.23;52.56;101529.91;5088216;28;20039;-86
2021/05/08 07:11:43;;;;;;;11.82;7.35;;;;;;;12.46;52.12;101529.53;5082612;28;20032;-85
2021/05/08 07:14:09;;;;;;;10.95;8.10;;;;;;;12.37;52.05;101529.69;5083017;28;20369;-86
2021/05/08 07:16:36;;;;;;;11.70;8.25;;;;;;;12.38;52.19;101524.34;5090889;28;20828;-86
2021/05/08 07:19:02;;;;;;;11.88;7.30;;;;;;;12.35;52.28;101518.19;5084112;28;20183;-86
2021/05/08 07:21:28;;;;;;;11.23;8.13;;;;;;;12.41;52.38;101520.75;5083325;28;20089;-88
2021/05/08 07:23:58;;;;;;;11.23;7.72;;;;;;;12.60;51.33;101530.19;5082401;28;20051;-88
2021/05/08 07:26:24;;;;;;;11.68;7.20;;;;;;;12.56;52.01;101519.63;5081800;28;20035;-87
2021/05/08 07:28:50;;;;;;;12.35;7.55;;;;;;;12.62;51.44;101523.06;5085942;28;20028;-88
2021/05/08 07:31:16;;;;;;;10.70;7.35;;;;;;;12.67;51.60;101519.44;5086602;28;20412;-88
2021/05/08 07:33:42;;;;;;;11.93;8.35;;;;;;;12.69;51.95;101520.28;5087820;28;20102;-87
2021/05/08 07:36:09;;;;;;;31.85;16.83;;;;;;;12.71;50.97;101507.81;5093843;28;20028;-87
2021/05/08 07:38:35;;;;;;;11.90;7.72;;;;;;;12.77;51.59;101505.94;5088444;28;20131;-88
2021/05/08 07:41:01;;;;;;;13.32;8.13;;;;;;;12.84;51.11;101505.84;5084470;28;20096;-90
2021/05/08 07:43:30;;;;;;;14.23;8.07;;;;;;;12.92;51.05;101498.56;5084757;28;20038;-86
2021/05/08 07:45:56;;;;;;;11.10;6.80;;;;;;;12.94;51.46;101494.09;5093909;28;20040;-88
2021/05/08 07:48:23;;;;;;;10.77;7.05;;;;;;;13.03;51.21;101490.38;5091220;28;20021;-88
2021/05/08 07:50:49;;;;;;;9.80;7.25;;;;;;;13.12;51.08;101495.50;5093408;28;20028;-88
2021/05/08 07:53:15;;;;;;;9.43;6.97;;;;;;;13.10;50.80;101494.69;5094488;28;20060;-87
2021/05/08 07:55:41;;;;;;;12.18;7.85;;;;;;;13.17;51.10;101491.00;5090702;28;20029;-88
2021/05/08 07:58:08;;;;;;;12.65;8.07;;;;;;;13.28;50.88;101474.78;5091151;28;20052;-88
2021/05/08 08:00:35;;;;;;;10.98;7.72;;;;;;;13.42;50.45;101470.09;5095526;28;20112;-88
2021/05/08 08:03:01;;;;;;;10.40;7.97;;;;;;;13.44;50.61;101472.72;5088709;28;20021;-88
2021/05/08 08:05:28;;;;;;;11.43;6.90;;;;;;;13.58;50.60;101480.38;5091769;28;20035;-88
2021/05/08 08:07:55;;;;;;;10.90;7.07;;;;;;;13.66;50.36;101473.13;5091658;28;20471;-88
2021/05/08 08:10:22;;;;;;;9.65;6.72;;;;;;;13.75;50.13;101469.38;5078257;28;20125;-90
2021/05/08 08:12:48;;;;;;;11.20;7.30;;;;;;;13.86;49.60;101454.00;5077333;28;20036;-89
2021/05/08 08:15:15;;;;;;;12.25;7.97;;;;;;;13.88;50.11;101456.63;5076437;28;20028;-88
2021/05/08 08:17:42;;;;;;;13.95;7.45;;;;;;;14.04;49.67;101457.13;5079123;28;20071;-86
2021/05/08 08:20:15;;;;;;;10.70;7.40;;;;;;;14.11;49.11;101458.72;5084632;28;20036;-89
2021/05/08 08:22:44;;;;;;;10.15;7.20;;;;;;;14.03;49.04;101458.94;5073844;28;20547;-91
2021/05/08 08:25:14;;;;;;;11.90;6.88;;;;;;;14.22;48.57;101462.00;5081286;28;20551;-92
2021/05/08 08:27:41;;;;;;;9.27;6.55;;;;;;;14.22;48.59;101446.00;5075189;28;20044;-89
2021/05/08 08:30:12;;;;;;;11.05;6.30;;;;;;;14.37;47.88;101450.06;5073599;28;20028;-87
2021/05/08 08:33:01;;;;;;;11.48;6.13;;;;;;;14.38;47.34;101445.59;5074543;28;20052;-87
2021/05/08 08:35:35;;;;;;;9.30;5.55;;;;;;;14.61;46.70;101447.66;5052226;28;20127;-90
2021/05/08 08:38:18;;;;;;;7.90;5.47;;;;;;;14.84;46.53;101441.72;5081381;28;20374;-88
2021/05/08 08:41:12;;;;;;;12.23;6.35;;;;;;;14.87;45.46;101433.63;5083213;28;20111;-87
2021/05/08 08:44:22;;;;;;;7.88;5.53;;;;;;;14.97;45.87;101428.03;5086937;28;20036;-96
2021/05/08 08:46:46;;;;;;;11.20;6.55;;;;;;;15.12;45.74;101422.25;5077467;28;20471;-92
2021/05/08 08:49:14;;;;;;;8.18;5.93;;;;;;;15.14;45.94;101425.75;5089564;28;20032;-92
2021/05/08 08:51:43;;;;;;;10.55;6.05;;;;;;;15.31;45.26;101416.34;5088093;28;20120;-91
2021/05/08 08:54:11;;;;;;;8.68;5.97;;;;;;;15.50;45.90;101406.84;5081254;28;20103;-91
2021/05/08 08:56:42;;;;;;;9.20;6.10;;;;;;;15.74;46.38;101408.75;5084695;28;20040;-90
2021/05/08 09:02:03;;;;;;;11.15;5.88;;;;;;;16.10;45.65;101406.72;5055950;27;870451;-90
2021/05/08 09:04:29;;;;;;;9.48;5.75;;;;;;;16.24;45.38;101418.75;5049390;28;20071;-91
2021/05/08 09:06:58;;;;;;;9.15;4.93;;;;;;;16.11;44.63;101419.16;5053741;28;20498;-91
2021/05/08 09:09:25;;;;;;;7.72;5.32;;;;;;;16.21;44.35;101413.47;5051949;28;20473;-89
2021/05/08 09:11:54;;;;;;;6.90;5.03;;;;;;;16.19;44.19;101421.56;5049812;28;20112;-88
2021/05/08 09:17:14;;;;;;;12.10;4.85;;;;;;;15.96;44.79;101409.88;5113780;27;20357;-86
2021/05/08 09:19:43;;;;;;;11.52;4.80;;;;;;;15.95;45.26;101412.56;5100355;28;20082;-88
2021/05/08 09:25:17;;;;;;;14.38;10.75;;;;;;;15.73;46.24;101410.56;5044628;28;20378;-90
2021/05/08 09:30:48;;;;;;;13.75;7.72;;;;;;;15.69;46.41;101408.94;5080455;27;20405;-89
2021/05/08 09:33:21;;;;;;;8.40;4.97;;;;;;;15.75;48.22;101411.41;5078435;28;20032;-92
2021/05/08 09:38:44;;;;;;;6.38;4.25;;;;;;;15.79;47.78;101402.34;5073240;27;20401;-92
2021/05/08 09:41:14;;;;;;;7.25;4.63;;;;;;;15.73;48.70;101407.03;5051366;28;20037;-88
2021/05/08 09:43:40;;;;;;;7.93;5.07;;;;;;;15.73;48.58;101385.66;5043111;28;20029;-88
2021/05/08 09:46:08;;;;;;;9.15;4.93;;;;;;;15.63;49.18;101387.75;5037335;28;20129;-93
2021/05/08 09:56:45;;;;;;;6.32;4.68;;;;;;;15.66;50.68;101376.97;5072344;27;20468;-88
2021/05/08 09:59:34;;;;;;;6.50;4.63;;;;;;;15.68;50.41;101370.66;5066124;28;21255;-90
2021/05/08 10:04:57;;;;;;;6.53;4.20;;;;;;;15.34;51.14;101365.53;5042095;28;20424;-91
2021/05/08 10:07:27;;;;;;;8.35;4.40;;;;;;;15.23;51.32;101356.97;5034101;28;20480;-82
2021/05/08 10:09:57;;;;;;;6.95;4.13;;;;;;;15.29;51.30;101359.44;5038628;28;20087;-86
2021/05/08 10:12:27;;;;;;;8.25;4.43;;;;;;;15.05;51.95;101361.97;5030685;28;20099;-87
2021/05/08 10:14:58;;;;;;;6.35;4.20;;;;;;;15.05;52.27;101351.28;5025902;28;20105;-89
2021/05/08 10:17:26;;;;;;;7.13;4.57;;;;;;;14.84;52.72;101344.78;5025601;28;20072;-90
2021/05/08 10:20:00;;;;;;;8.60;3.97;;;;;;;14.82;53.93;101344.00;5022648;28;20496;-87
2021/05/08 10:22:34;;;;;;;9.18;4.43;;;;;;;14.83;53.35;101333.25;5021304;28;20079;-88
2021/05/08 10:25:04;;;;;;;6.47;4.28;;;;;;;14.60;53.87;101333.03;5029827;28;20037;-89
2021/05/08 10:27:30;;;;;;;5.72;4.35;;;;;;;14.66;54.16;101317.75;5026864;28;20097;-86
2021/05/08 10:29:57;;;;;;;6.72;4.22;;;;;;;14.56;54.79;101317.13;5030972;28;20037;-88
2021/05/08 10:32:24;;;;;;;12.10;4.53;;;;;;;14.75;54.48;101303.28;5032328;28;20045;-86
2021/05/08 10:34:59;;;;;;;8.23;4.28;;;;;;;14.67;55.74;101307.97;5030802;28;20104;-87
2021/05/08 10:37:27;;;;;;;7.05;4.78;;;;;;;14.62;55.75;101301.88;5030872;28;20545;-87
2021/05/08 10:43:01;;;;;;;7.65;4.25;;;;;;;14.52;56.40;101286.13;5114750;27;20409;-88
2021/05/08 10:48:27;;;;;;;6.43;5.05;;;;;;;14.62;56.57;101269.88;5072279;28;20160;-88
2021/05/08 10:50:57;;;;;;;6.35;4.13;;;;;;;14.45;57.21;101271.22;5057001;28;20057;-88
2021/05/08 10:56:40;;;;;;;6.97;4.47;;;;;;;14.39;57.63;101266.06;5067623;28;20426;-87
2021/05/08 10:59:08;;;;;;;6.43;4.35;;;;;;;14.24;57.81;101262.06;5051321;28;20102;-88
2021/05/08 11:01:43;;;;;;;7.45;4.38;;;;;;;14.20;58.84;101250.63;5047966;28;20067;-88
2021/05/08 11:04:10;;;;;;;7.05;4.88;;;;;;;14.03;58.35;101251.13;5052011;28;20028;-87
2021/05/08 11:06:36;;;;;;;7.95;5.05;;;;;;;14.05;58.91;101240.41;5051895;28;20037;-87
2021/05/08 11:09:23;;;;;;;9.35;5.32;;;;;;;13.87;59.66;101232.00;5049850;28;20040;-88
2021/05/08 11:11:50;;;;;;;9.13;4.95;;;;;;;13.97;59.20;101235.28;5042501;28;20037;-88
2021/05/08 11:14:54;;;;;;;7.53;4.55;;;;;;;13.88;59.62;101235.53;5039751;28;20029;-88
2021/05/08 11:17:21;;;;;;;;;;;;;;;13.95;60.04;101223.81;5045927;28;20130;-83
2021/05/08 11:19:47;;;;;;;5.72;4.45;;;;;;;13.83;60.16;101225.03;5054487;28;19920;-87
2021/05/08 11:22:16;;;;;;;6.53;4.65;;;;;;;13.65;60.86;101207.75;5062066;28;20048;-87
2021/05/08 11:24:42;;;;;;;10.38;5.18;;;;;;;13.64;60.71;101202.47;5044607;28;20477;-90
2021/05/08 11:27:26;;;;;;;150.43;85.28;;;;;;;13.77;61.41;101189.69;5042313;28;20045;-87
2021/05/08 11:29:52;;;;;;;31.63;18.13;;;;;;;13.67;61.83;101191.72;5049504;28;20029;-87
2021/05/08 11:32:18;;;;;;;15.90;8.57;;;;;;;13.89;60.25;101190.22;5042139;28;20021;-88
2021/05/08 11:34:45;;;;;;;10.60;5.60;;;;;;;13.75;61.20;101184.41;5047933;28;20029;-86
2021/05/08 11:37:14;;;;;;;7.28;5.10;;;;;;;13.71;62.20;101174.78;5040778;28;20518;-87
2021/05/08 11:39:44;;;;;;;6.68;5.03;;;;;;;13.89;61.58;101174.25;5040105;28;20021;-88
2021/05/08 11:44:55;;;;;;;8.02;5.38;;;;;;;13.88;62.04;101153.84;5051715;28;20418;-85
2021/05/08 11:47:28;;;;;;;8.60;5.95;;;;;;;13.59;63.12;101150.22;5040410;28;20026;-85
2021/05/08 11:52:38;;;;;;;12.65;5.72;;;;;;;13.57;63.37;101141.41;5067757;28;20427;-86
2021/05/08 11:55:17;;;;;;;9.65;4.88;;;;;;;13.61;62.91;101138.63;5065407;28;20035;-88
2021/05/08 11:58:00;;;;;;;6.10;5.03;;;;;;;13.44;63.24;101137.31;5066368;28;20025;-87
2021/05/08 12:00:29;;;;;;;9.90;5.78;;;;;;;13.43;63.90;101124.94;5059880;28;20037;-86
2021/05/08 12:03:17;;;;;;;42.70;25.10;;;;;;;13.67;63.26;101133.16;5068751;28;20029;-88
2021/05/08 12:05:45;;;;;;;11.07;7.10;;;;;;;13.61;62.96;101120.00;5064949;28;20036;-87
2021/05/08 12:08:13;;;;;;;7.00;5.55;;;;;;;13.64;63.55;101101.28;5059023;28;20036;-88
2021/05/08 12:10:42;;;;;;;8.13;5.97;;;;;;;13.73;63.65;101098.34;5055927;28;20037;-89